Time;durP1;ratioP1;P1;durP2;ratioP2;P2;SDS_P1;SDS_P2;PMS_P1;PMS_P2;Temp;Humidity;BMP_temperature;BMP_pressure;BME280_temperature;BME280_humidity;BME280_pressure;Samples;Min_cycle;Max_cycle;Signal;HPM_P1;HPM_P2
2022/04/04 00:00:06;;;;;;;11.48;7.85;;;;;;;5.14;49.09;101054.84;5086047;28;20036;-81
2022/04/04 00:02:32;;;;;;;12.93;8.20;;;;;;;5.14;49.45;101048.66;5110261;28;20050;-80
2022/04/04 00:04:58;;;;;;;13.38;7.45;;;;;;;5.20;49.41;101059.72;5074085;28;20397;-79
2022/04/04 00:07:23;;;;;;;11.93;7.33;;;;;;;4.96;49.24;101038.41;5073249;28;20078;-80
2022/04/04 00:09:49;;;;;;;11.03;7.13;;;;;;;5.07;49.41;101059.78;5097041;28;20623;-80
2022/04/04 00:12:16;;;;;;;11.70;6.82;;;;;;;5.06;49.53;101070.56;5109281;28;20047;-79
2022/04/04 00:14:43;;;;;;;12.40;7.65;;;;;;;5.06;49.40;101083.91;5110286;28;20120;-82
2022/04/04 00:17:09;;;;;;;12.43;7.45;;;;;;;5.00;49.52;101073.69;5090096;28;20066;-79
2022/04/04 00:19:34;;;;;;;12.30;7.95;;;;;;;5.05;49.72;101084.84;5109916;28;20131;-80
2022/04/04 00:22:00;;;;;;;10.23;7.37;;;;;;;5.13;49.65;101073.59;5101715;28;20039;-78
2022/04/04 00:24:28;;;;;;;11.18;7.38;;;;;;;5.08;49.69;101089.97;5110537;28;20114;-79
2022/04/04 00:26:53;;;;;;;10.80;6.68;;;;;;;5.00;49.66;101092.34;5089450;28;20058;-78
2022/04/04 00:29:19;;;;;;;10.50;7.43;;;;;;;4.94;49.96;101080.34;5081187;28;20040;-80
2022/04/04 00:31:44;;;;;;;10.83;7.23;;;;;;;4.89;49.92;101085.13;5094467;28;20476;-79
2022/04/04 00:34:10;;;;;;;9.60;7.10;;;;;;;4.83;50.33;101097.13;5113998;28;20066;-78
2022/04/04 00:36:36;;;;;;;13.33;6.93;;;;;;;4.77;50.71;101088.72;5113254;28;20563;-79
2022/04/04 00:39:01;;;;;;;12.23;6.97;;;;;;;4.79;50.75;101076.13;5103698;28;20054;-79
2022/04/04 00:41:28;;;;;;;10.20;7.07;;;;;;;4.75;50.84;101074.66;5076467;28;20766;-80
2022/04/04 00:43:54;;;;;;;11.55;6.90;;;;;;;4.68;51.11;101074.25;5095929;28;20294;-79
2022/04/04 00:46:20;;;;;;;11.03;7.10;;;;;;;4.67;51.14;101075.22;5113538;28;20561;-80
2022/04/04 00:48:46;;;;;;;9.88;7.13;;;;;;;4.69;51.34;101070.63;5094545;28;20359;-79
2022/04/04 00:51:11;;;;;;;12.32;7.13;;;;;;;4.66;51.30;101068.22;5093823;28;20036;-79
2022/04/04 00:53:38;;;;;;;9.60;6.72;;;;;;;4.52;51.84;101063.03;5062634;28;20036;-81
2022/04/04 00:56:03;;;;;;;10.73;7.18;;;;;;;4.43;51.99;101054.75;5086265;28;20040;-79
2022/04/04 00:58:30;;;;;;;11.95;7.07;;;;;;;4.49;52.26;101068.59;5091209;28;20020;-79
2022/04/04 01:00:56;;;;;;;10.38;7.03;;;;;;;4.48;52.15;101072.22;5096775;28;20039;-79
2022/04/04 01:03:22;;;;;;;11.32;7.20;;;;;;;4.40;52.25;101052.34;5108322;28;20063;-81
2022/04/04 01:05:48;;;;;;;12.98;7.35;;;;;;;4.42;52.23;101069.03;5087241;28;20069;-79
2022/04/04 01:08:17;;;;;;;10.27;7.22;;;;;;;4.38;52.48;101072.03;5092699;28;20130;-79
2022/04/04 01:10:43;;;;;;;11.30;7.45;;;;;;;4.26;52.84;101076.44;5076262;28;20071;-79
2022/04/04 01:13:12;;;;;;;11.60;7.25;;;;;;;4.24;53.20;101067.72;5078720;28;20039;-79
2022/04/04 01:15:39;;;;;;;12.20;6.55;;;;;;;4.08;53.21;101061.78;5111290;28;20108;-81
2022/04/04 01:18:05;;;;;;;10.60;6.93;;;;;;;4.18;53.44;101082.28;5095800;28;20071;-80
2022/04/04 01:20:31;;;;;;;11.48;7.55;;;;;;;4.13;53.66;101091.56;5102968;28;20026;-82
2022/04/04 01:22:58;;;;;;;10.60;7.10;;;;;;;4.12;53.72;101092.50;5095112;28;20027;-80
2022/04/04 01:25:28;;;;;;;12.05;7.50;;;;;;;4.12;53.90;101097.84;5112109;28;20027;-79
2022/04/04 01:27:55;;;;;;;10.32;7.18;;;;;;;4.06;54.01;101095.63;5095475;28;20059;-80
2022/04/04 01:30:24;;;;;;;12.45;7.55;;;;;;;3.98;54.09;101091.69;5093971;28;20040;-80
2022/04/04 01:32:52;;;;;;;12.98;7.40;;;;;;;4.04;54.14;101094.88;5092354;28;20364;-80
2022/04/04 01:35:18;;;;;;;11.80;7.50;;;;;;;4.08;54.06;101096.38;5111397;28;20385;-83
2022/04/04 01:37:45;;;;;;;;;;;;;;;4.07;54.17;101102.63;5066241;28;20073;-79
2022/04/04 01:40:11;;;;;;;10.80;6.60;;;;;;;3.95;54.36;101093.72;5105706;28;19916;-79
2022/04/04 01:42:38;;;;;;;11.07;7.32;;;;;;;4.05;54.07;101109.88;5112251;28;20040;-78
2022/04/04 01:45:05;;;;;;;12.20;8.02;;;;;;;4.01;54.31;101107.44;5111351;28;20040;-80
2022/04/04 01:47:32;;;;;;;12.68;7.90;;;;;;;4.00;54.35;101119.06;5112642;28;20027;-79
2022/04/04 01:49:57;;;;;;;;;;;;;;;3.95;54.76;101123.81;5110735;28;20119;-78
2022/04/04 01:52:24;;;;;;;10.13;6.43;;;;;;;3.92;54.89;101123.19;5112580;28;20045;-81
2022/04/04 01:54:49;;;;;;;11.30;7.68;;;;;;;3.91;54.84;101126.78;5094069;28;20168;-79
2022/04/04 01:57:16;;;;;;;11.83;7.57;;;;;;;3.84;54.96;101125.53;5104772;28;20449;-85
2022/04/04 01:59:43;;;;;;;12.07;7.65;;;;;;;3.89;55.01;101142.03;5111598;28;20168;-81
2022/04/04 02:02:09;;;;;;;11.68;7.57;;;;;;;3.80;55.29;101148.84;5112556;28;20090;-79
2022/04/04 02:04:35;;;;;;;11.03;7.53;;;;;;;3.82;55.39;101152.25;5092553;28;21915;-79
2022/04/04 02:07:01;;;;;;;12.55;7.50;;;;;;;3.77;55.49;101149.06;5108436;28;20274;-79
2022/04/04 02:09:26;;;;;;;11.98;7.88;;;;;;;3.79;55.41;101141.78;5092610;28;20046;-79
2022/04/04 02:11:52;;;;;;;11.50;7.80;;;;;;;3.79;55.47;101150.66;5113130;28;20031;-79
2022/04/04 02:14:17;;;;;;;12.63;7.43;;;;;;;3.92;55.35;101153.31;5093208;28;20387;-82
2022/04/04 02:16:43;;;;;;;12.10;7.90;;;;;;;3.91;55.26;101153.41;5092439;28;20039;-79
2022/04/04 02:19:09;;;;;;;12.20;8.02;;;;;;;3.81;55.62;101142.53;5055514;28;20051;-80
2022/04/04 02:21:35;;;;;;;11.25;7.75;;;;;;;3.81;55.57;101139.88;5109234;28;20046;-79
2022/04/04 02:24:02;;;;;;;11.15;7.55;;;;;;;3.75;55.82;101135.00;5076325;28;20400;-80
2022/04/04 02:26:29;;;;;;;12.18;7.93;;;;;;;3.70;56.02;101131.78;5092341;28;20062;-78
2022/04/04 02:28:57;;;;;;;11.20;7.32;;;;;;;3.63;56.15;101136.69;5111240;28;20063;-81
2022/04/04 02:31:22;;;;;;;13.00;7.55;;;;;;;3.57;56.40;101140.59;5107614;28;20052;-80
2022/04/04 02:33:47;;;;;;;11.37;7.70;;;;;;;3.62;56.35;101158.06;5105275;28;20107;-80
2022/04/04 02:36:13;;;;;;;11.63;7.50;;;;;;;3.57;56.44;101155.72;5091300;28;20473;-81
2022/04/04 02:38:39;;;;;;;11.47;7.27;;;;;;;3.41;56.74;101150.56;5071690;28;20061;-80
2022/04/04 02:41:05;;;;;;;11.43;7.63;;;;;;;3.44;56.69;101160.13;5072010;28;20633;-79
2022/04/04 02:43:30;;;;;;;13.00;7.50;;;;;;;3.30;56.98;101142.47;5064950;28;20524;-79
2022/04/04 02:45:56;;;;;;;11.43;7.28;;;;;;;3.46;56.96;101160.91;5109258;27;20032;-80
2022/04/04 02:48:23;;;;;;;10.63;6.97;;;;;;;3.43;56.69;101143.34;5091985;28;20053;-80
2022/04/04 02:50:48;;;;;;;11.57;7.80;;;;;;;3.41;56.39;101157.69;5109273;28;20116;-81
2022/04/04 02:53:14;;;;;;;10.98;6.80;;;;;;;3.38;56.67;101151.63;5106754;28;20487;-80
2022/04/04 02:58:23;;;;;;;11.23;7.03;;;;;;;3.41;56.38;101169.19;5089522;28;20158;-79
2022/04/04 03:00:49;;;;;;;11.27;7.50;;;;;;;3.38;56.40;101169.38;5086353;28;20035;-80
2022/04/04 03:03:14;;;;;;;10.00;6.50;;;;;;;3.45;56.53;101173.34;5085734;28;20035;-79
2022/04/04 03:05:41;;;;;;;12.30;7.13;;;;;;;3.44;56.84;101176.09;5100469;28;20074;-79
2022/04/04 03:08:07;;;;;;;11.25;7.30;;;;;;;3.47;56.61;101182.06;5096453;28;20028;-79
2022/04/04 03:10:35;;;;;;;11.20;7.75;;;;;;;3.42;56.72;101189.50;5106778;28;20082;-79
2022/04/04 03:13:04;;;;;;;22.50;7.88;;;;;;;3.45;56.72;101183.97;5075894;28;20035;-80
2022/04/04 03:15:31;;;;;;;11.50;7.65;;;;;;;3.28;57.08;101170.97;5104774;28;20130;-79
2022/04/04 03:17:58;;;;;;;14.73;7.70;;;;;;;3.37;57.16;101191.59;5093408;28;20031;-80
2022/04/04 03:20:24;;;;;;;12.50;7.78;;;;;;;3.39;56.49;101187.03;5107670;28;20138;-80
2022/04/04 03:22:51;;;;;;;11.10;7.00;;;;;;;3.37;56.61;101191.59;5110441;28;20024;-81
2022/04/04 03:25:17;;;;;;;9.95;6.95;;;;;;;3.26;56.71;101175.53;5077826;28;20412;-79
2022/04/04 03:27:43;;;;;;;10.85;6.78;;;;;;;3.32;56.70;101201.69;5109169;28;20046;-80
2022/04/04 03:30:32;;;;;;;11.27;7.07;;;;;;;3.37;56.39;101194.25;5087892;28;20032;-80
2022/04/04 03:33:00;;;;;;;10.45;7.00;;;;;;;3.25;56.52;101193.25;5091636;28;20032;-81
2022/04/04 03:35:27;;;;;;;9.70;6.63;;;;;;;3.35;56.44;101220.09;5105596;28;20028;-80
2022/04/04 03:37:53;;;;;;;13.60;7.28;;;;;;;3.31;56.96;101224.75;5126155;28;20015;-82
2022/04/04 03:40:19;;;;;;;14.57;7.72;;;;;;;3.29;57.22;101244.41;5117243;28;20051;-81
2022/04/04 03:42:45;;;;;;;13.23;7.82;;;;;;;3.25;57.64;101249.06;5106335;28;20047;-79
2022/04/04 03:45:11;;;;;;;;;;;;;;;3.11;58.16;101257.06;5098517;28;20032;-79
2022/04/04 03:47:38;;;;;;;14.23;7.63;;;;;;;2.98;58.33;101250.84;5109276;28;19947;-79
2022/04/04 03:50:06;;;;;;;17.20;8.15;;;;;;;3.03;58.46;101260.22;5099701;28;20039;-79
2022/04/04 03:52:32;;;;;;;16.42;8.15;;;;;;;3.00;58.64;101263.09;5092712;28;20020;-79
2022/04/04 03:54:57;;;;;;;12.40;7.67;;;;;;;3.10;58.26;101269.50;5108404;28;20066;-81
2022/04/04 03:57:23;;;;;;;12.90;8.03;;;;;;;3.05;58.69;101265.44;5125994;28;20088;-80
2022/04/04 03:59:48;;;;;;;14.60;7.97;;;;;;;2.98;58.83;101264.13;5111045;28;20036;-79
2022/04/04 04:02:14;;;;;;;16.07;8.03;;;;;;;3.07;58.54;101274.19;5107580;28;20141;-79
2022/04/04 04:04:40;;;;;;;23.85;13.13;;;;;;;3.06;58.49;101281.28;5108581;28;20043;-81
2022/04/04 04:07:14;;;;;;;15.33;8.60;;;;;;;3.03;58.52;101278.81;5104547;28;20043;-83
2022/04/04 04:09:40;;;;;;;16.80;8.70;;;;;;;3.08;58.70;101282.03;5099659;28;20027;-78
2022/04/04 04:12:07;;;;;;;17.50;8.93;;;;;;;3.19;58.42;101288.50;5110167;28;20491;-80
2022/04/04 04:14:32;;;;;;;14.48;8.85;;;;;;;3.27;58.25;101291.50;5103211;28;20402;-79
2022/04/04 04:16:58;;;;;;;15.10;8.73;;;;;;;3.21;58.22;101289.22;5107984;28;20097;-80
2022/04/04 04:22:07;;;;;;;13.25;7.50;;;;;;;3.36;57.89;101282.94;5107975;28;20046;-79
2022/04/04 04:24:33;;;;;;;11.10;7.47;;;;;;;3.41;57.83;101286.13;5108712;28;20039;-78
2022/04/04 04:26:58;;;;;;;13.67;7.93;;;;;;;3.52;57.22;101280.13;5103126;28;20035;-79
2022/04/04 04:29:23;;;;;;;12.37;7.20;;;;;;;3.57;56.79;101289.50;5099386;28;20051;-78
2022/04/04 04:31:51;;;;;;;20.77;8.10;;;;;;;3.66;56.77;101284.56;5102971;28;20126;-79
2022/04/04 04:34:17;;;;;;;13.55;7.90;;;;;;;3.72;56.29;101282.34;5093989;28;20098;-81
2022/04/04 04:36:42;;;;;;;13.65;7.63;;;;;;;3.84;56.08;101290.44;5106852;28;20036;-79
2022/04/04 04:39:11;;;;;;;10.55;6.82;;;;;;;3.95;55.80;101302.06;5104705;28;20043;-79
2022/04/04 04:41:38;;;;;;;10.68;6.97;;;;;;;3.87;55.85;101295.56;5103527;28;20523;-80
2022/04/04 04:44:06;;;;;;;12.93;7.60;;;;;;;3.92;55.71;101299.63;5091671;28;20039;-80
2022/04/04 04:46:31;;;;;;;10.32;7.28;;;;;;;3.98;55.49;101301.00;5107701;28;20479;-81
2022/04/04 04:48:59;;;;;;;15.43;7.88;;;;;;;4.00;55.69;101313.28;5076510;28;20039;-77
2022/04/04 04:51:25;;;;;;;10.63;6.95;;;;;;;4.01;55.26;101299.00;5109928;28;20096;-81
2022/04/04 04:53:51;;;;;;;11.10;7.47;;;;;;;4.07;55.66;101318.16;5087170;28;20427;-85
2022/04/04 04:56:16;;;;;;;12.27;7.43;;;;;;;4.14;55.35;101324.78;5084069;28;20044;-81
2022/04/04 04:58:50;;;;;;;14.77;7.37;;;;;;;4.11;55.33;101322.34;5091402;28;20492;-79
2022/04/04 05:01:15;;;;;;;20.05;8.45;;;;;;;4.14;55.36;101327.44;5108816;28;20499;-81
2022/04/04 05:03:41;;;;;;;12.17;7.23;;;;;;;4.24;55.22;101333.88;5088351;28;20068;-79
2022/04/04 05:06:06;;;;;;;11.20;7.20;;;;;;;4.27;55.01;101341.66;5107425;28;20032;-79
2022/04/04 05:08:32;;;;;;;12.10;7.73;;;;;;;4.23;55.06;101342.81;5068152;28;20040;-79
2022/04/04 05:10:59;;;;;;;10.67;7.33;;;;;;;4.21;55.09;101337.59;5106393;28;20080;-79
2022/04/04 05:13:26;;;;;;;11.88;7.53;;;;;;;4.25;54.69;101326.75;5074846;28;20047;-80
2022/04/04 05:15:54;;;;;;;12.05;7.55;;;;;;;4.32;54.95;101333.34;5093871;28;20036;-80
2022/04/04 05:18:20;;;;;;;12.50;7.43;;;;;;;4.38;54.99;101343.59;5078687;28;20028;-79
2022/04/04 05:20:46;;;;;;;13.07;7.75;;;;;;;4.45;54.62;101344.88;5107903;28;20054;-80
2022/04/04 05:23:13;;;;;;;13.70;7.88;;;;;;;4.65;54.35;101354.16;5089505;28;20071;-81
2022/04/04 05:25:39;;;;;;;13.43;7.57;;;;;;;5.12;53.01;101365.97;5109212;28;20050;-79
2022/04/04 05:28:07;;;;;;;12.55;8.15;;;;;;;7.49;46.51;101334.72;5073264;28;20127;-81
2022/04/04 05:30:33;;;;;;;10.70;7.88;;;;;;;9.70;41.25;101337.28;5100896;28;20401;-82
2022/04/04 05:33:06;;;;;;;11.50;8.15;;;;;;;11.36;37.82;101359.41;5088640;28;20055;-80
2022/04/04 05:35:32;;;;;;;10.38;6.57;;;;;;;13.02;34.76;101351.69;5094372;28;20040;-82
2022/04/04 05:37:59;;;;;;;11.77;7.35;;;;;;;14.72;31.27;101351.44;5092651;28;20048;-83
2022/04/04 05:40:24;;;;;;;12.32;6.80;;;;;;;14.51;30.29;101343.81;5082961;28;20097;-84
2022/04/04 05:42:50;;;;;;;10.18;7.25;;;;;;;15.29;29.62;101364.00;5098778;28;20040;-82
2022/04/04 05:45:17;;;;;;;10.35;7.22;;;;;;;15.53;28.91;101365.75;5099315;28;20046;-84
2022/04/04 05:47:44;;;;;;;11.13;7.00;;;;;;;15.82;28.30;101370.53;5083261;28;20039;-87
2022/04/04 05:50:10;;;;;;;12.77;7.15;;;;;;;15.77;28.51;101377.53;5108902;28;20031;-85
2022/04/04 05:52:38;;;;;;;11.55;6.95;;;;;;;16.17;27.91;101381.00;5090581;28;20040;-84
2022/04/04 05:55:06;;;;;;;10.98;7.13;;;;;;;16.01;27.96;101380.13;5107053;28;20040;-85
2022/04/04 05:57:36;;;;;;;10.48;7.38;;;;;;;15.78;28.42;101377.38;5101028;28;20039;-84
2022/04/04 06:00:08;;;;;;;14.73;7.63;;;;;;;16.96;27.51;101378.84;5111374;28;20027;-85
2022/04/04 06:02:35;;;;;;;8.38;6.70;;;;;;;16.37;27.55;101376.81;5105930;28;20031;-84
2022/04/04 06:05:01;;;;;;;8.63;6.80;;;;;;;16.73;27.22;101362.56;5097092;28;20035;-84
2022/04/04 06:07:27;;;;;;;;;;;;;;;16.14;27.42;101373.25;5101096;28;20043;-84
2022/04/04 06:09:52;;;;;;;10.43;8.05;;;;;;;15.61;28.00;101373.00;5111569;28;19927;-82
2022/04/04 06:12:18;;;;;;;11.43;7.15;;;;;;;16.37;27.23;101373.25;5107669;28;20431;-84
2022/04/04 06:14:44;;;;;;;13.15;7.47;;;;;;;17.40;25.60;101358.16;5104586;28;20919;-82
2022/04/04 06:17:10;;;;;;;8.15;6.88;;;;;;;16.16;27.34;101376.63;5089139;28;20032;-83
2022/04/04 06:19:41;;;;;;;9.48;7.65;;;;;;;18.46;24.90;101383.00;5096865;28;20554;-79
2022/04/04 06:22:07;;;;;;;9.57;6.68;;;;;;;18.72;23.83;101385.13;5100691;28;20035;-79
2022/04/04 06:24:34;;;;;;;;;;;;;;;19.47;23.10;101399.06;5092981;28;20105;-81
2022/04/04 06:27:01;;;;;;;7.78;6.78;;;;;;;18.78;23.26;101384.38;5096670;28;20496;-82
2022/04/04 06:29:28;;;;;;;9.23;6.38;;;;;;;19.72;22.33;101407.63;5070052;28;20039;-86
2022/04/04 06:31:58;;;;;;;8.00;6.82;;;;;;;19.67;22.22;101407.34;5112381;28;20158;-83
2022/04/04 06:34:28;;;;;;;8.23;6.72;;;;;;;18.41;23.78;101420.88;5101127;28;20028;-88
2022/04/04 06:36:53;;;;;;;7.80;6.50;;;;;;;18.80;23.66;101411.38;5086994;28;20032;-82
2022/04/04 06:39:19;;;;;;;;;;;;;;;19.94;22.09;101420.06;5106214;28;20125;-81
2022/04/04 06:41:45;;;;;;;8.52;6.95;;;;;;;20.63;21.61;101409.97;5104873;28;19916;-86
2022/04/04 06:44:12;;;;;;;7.75;6.60;;;;;;;21.71;20.45;101407.69;5088792;28;20047;-83
2022/04/04 06:46:39;;;;;;;8.07;6.63;;;;;;;22.20;19.81;101426.44;5107437;28;20035;-82
2022/04/04 06:49:08;;;;;;;9.20;6.53;;;;;;;22.25;19.78;101418.41;5093820;28;20034;-83
2022/04/04 06:51:38;;;;;;;7.45;6.72;;;;;;;20.76;21.01;101426.34;5101780;28;20047;-82
2022/04/04 06:54:07;;;;;;;10.70;7.00;;;;;;;21.32;20.47;101416.00;5105693;28;20514;-86
2022/04/04 06:56:38;;;;;;;8.05;7.20;;;;;;;21.11;21.12;101428.84;5107819;28;20055;-83
2022/04/04 06:59:05;;;;;;;9.57;6.63;;;;;;;22.79;19.19;101414.22;5072503;28;20039;-83
2022/04/04 07:01:35;;;;;;;9.20;7.20;;;;;;;23.67;17.92;101418.66;5107857;28;20042;-84
2022/04/04 07:04:04;;;;;;;7.55;6.70;;;;;;;24.97;17.19;101410.84;5108205;28;20052;-82
2022/04/04 07:06:30;;;;;;;8.82;6.50;;;;;;;24.21;17.45;101416.91;5107978;28;20114;-85
2022/04/04 07:09:00;;;;;;;10.38;6.45;;;;;;;23.90;17.56;101422.59;5066245;28;20082;-84
2022/04/04 07:11:26;;;;;;;10.27;6.50;;;;;;;23.64;17.53;101410.03;5109260;28;20046;-82
2022/04/04 07:13:52;;;;;;;12.35;6.30;;;;;;;23.49;17.95;101416.72;5084699;28;20035;-82
2022/04/04 07:16:18;;;;;;;9.07;6.85;;;;;;;22.00;19.25;101426.53;5110836;28;20042;-80
2022/04/04 07:18:44;;;;;;;9.88;6.43;;;;;;;22.58;19.18;101444.75;5091828;28;20069;-82
2022/04/04 07:21:10;;;;;;;7.80;6.13;;;;;;;24.54;17.40;101443.09;5075378;28;20039;-85
2022/04/04 07:23:37;;;;;;;7.55;6.57;;;;;;;24.14;16.78;101429.91;5108000;28;20066;-82
2022/04/04 07:26:03;;;;;;;10.10;6.95;;;;;;;23.21;17.97;101439.19;5107813;28;20038;-82
2022/04/04 07:28:53;;;;;;;6.75;6.05;;;;;;;23.79;17.25;101425.06;5081094;28;20040;-79
2022/04/04 07:31:22;;;;;;;8.23;5.80;;;;;;;26.03;15.68;101430.00;5095087;28;20043;-82
2022/04/04 07:33:48;;;;;;;11.48;6.40;;;;;;;26.88;14.83;101440.13;5105546;28;20023;-84
2022/04/04 07:36:18;;;;;;;14.40;6.63;;;;;;;26.67;14.55;101449.97;5112740;28;20038;-84
2022/04/04 07:38:44;;;;;;;12.60;6.97;;;;;;;26.75;13.99;101457.00;5108411;27;20062;-83
2022/04/04 07:41:09;;;;;;;7.70;5.82;;;;;;;26.62;14.13;101449.88;5114430;27;20087;-82
2022/04/04 07:43:35;;;;;;;10.80;5.97;;;;;;;27.00;14.36;101459.34;5088563;28;20055;-84
2022/04/04 07:46:01;;;;;;;11.57;6.10;;;;;;;26.18;14.66;101468.88;5100546;27;20024;-85
2022/04/04 07:48:28;;;;;;;9.85;6.38;;;;;;;25.11;15.61;101458.22;5103501;27;20515;-85
2022/04/04 07:50:54;;;;;;;9.30;6.47;;;;;;;23.29;17.17;101474.53;5092764;28;20138;-83
2022/04/04 07:53:26;;;;;;;34.65;6.65;;;;;;;23.90;16.96;101474.78;5098230;28;20064;-84
2022/04/04 07:55:52;;;;;;;7.63;6.00;;;;;;;22.17;18.45;101460.53;5073526;28;20127;-83
2022/04/04 07:58:20;;;;;;;17.02;6.88;;;;;;;22.47;18.39;101476.44;5102521;28;20039;-84
2022/04/04 08:00:46;;;;;;;14.10;7.22;;;;;;;22.14;18.67;101478.25;5093147;28;20031;-87
2022/04/04 08:03:13;;;;;;;7.10;6.00;;;;;;;21.80;18.91;101495.06;5100908;28;20040;-83
2022/04/04 08:05:38;;;;;;;7.93;6.50;;;;;;;20.36;20.03;101496.44;5103104;28;20034;-84
2022/04/04 08:08:06;;;;;;;9.82;6.63;;;;;;;19.98;20.95;101497.75;5112648;28;20055;-86
2022/04/04 08:10:32;;;;;;;11.23;6.60;;;;;;;19.87;20.68;101495.59;5109640;28;20055;-83
2022/04/04 08:13:01;;;;;;;10.10;6.32;;;;;;;22.04;19.02;101499.78;5082325;28;20496;-89
2022/04/04 08:15:30;;;;;;;7.97;6.03;;;;;;;20.41;20.35;101494.75;5095309;28;20044;-83
2022/04/04 08:17:56;;;;;;;10.93;7.90;;;;;;;21.22;20.32;101488.38;5099909;28;20489;-85
2022/04/04 08:20:21;;;;;;;9.88;7.35;;;;;;;19.96;21.58;101486.22;5098914;28;20126;-89
2022/04/04 08:23:31;;;;;;;15.23;6.78;;;;;;;19.52;22.72;101486.56;5104651;28;20024;-93
2022/04/04 08:27:05;;;;;;;10.40;7.55;;;;;;;17.21;26.27;101487.28;5106150;28;20032;-95
2022/04/04 08:29:31;;;;;;;9.50;7.57;;;;;;;16.38;27.41;101478.03;5085155;28;20060;-86
2022/04/04 08:31:56;;;;;;;;;;;;;;;17.18;25.47;101484.91;5057296;28;20074;-87
2022/04/04 08:34:22;;;;;;;;;;;;;;;16.74;25.42;101488.31;5088008;28;19920;-88
2022/04/04 08:36:58;;;;;;;9.57;7.10;;;;;;;15.68;26.62;101473.44;5066967;28;19916;-86
2022/04/04 08:39:25;;;;;;;12.27;9.52;;;;;;;17.54;24.01;101471.47;5084810;28;20032;-88
2022/04/04 08:41:55;;;;;;;11.80;8.95;;;;;;;18.70;23.51;101463.44;5076060;28;20044;-89
2022/04/04 08:44:21;;;;;;;13.88;7.38;;;;;;;19.23;22.62;101477.56;5052039;28;20555;-88
2022/04/04 08:46:46;;;;;;;;;;;;;;;20.46;20.69;101475.03;5070943;28;20048;-88
2022/04/04 08:49:13;;;;;;;7.65;6.85;;;;;;;18.26;22.96;101470.75;5058265;28;19912;-90
2022/04/04 08:51:38;;;;;;;9.57;7.20;;;;;;;18.95;22.30;101483.00;5070802;28;20048;-87
2022/04/04 08:54:04;;;;;;;;;;;;;;;19.23;21.85;101479.44;5057203;28;20535;-88
2022/04/04 08:56:34;;;;;;;9.68;6.32;;;;;;;17.86;23.19;101481.16;5088206;28;19959;-87
2022/04/04 08:58:59;;;;;;;9.45;6.82;;;;;;;17.06;24.39;101477.19;5066705;28;20055;-86
2022/04/04 09:01:27;;;;;;;;;;;;;;;16.19;25.59;101482.91;5085987;28;20020;-88
2022/04/04 09:04:04;;;;;;;9.18;6.55;;;;;;;17.61;24.19;101474.28;5121651;28;19942;-89
2022/04/04 09:06:32;;;;;;;9.25;7.05;;;;;;;18.74;22.90;101465.59;5128701;28;20023;-88
2022/04/04 09:08:59;;;;;;;9.07;7.40;;;;;;;20.33;20.67;101470.38;5109381;28;20047;-88
2022/04/04 09:11:25;;;;;;;8.20;6.68;;;;;;;20.57;20.14;101459.97;5091343;28;20082;-89
2022/04/04 09:14:06;;;;;;;8.52;6.47;;;;;;;21.08;20.14;101456.63;5106149;28;20151;-85
2022/04/04 09:16:37;;;;;;;7.18;6.47;;;;;;;18.90;21.55;101469.13;5102924;28;20039;-87
2022/04/04 09:19:04;;;;;;;10.15;7.30;;;;;;;19.03;21.67;101463.75;5099478;28;20111;-85
2022/04/04 09:21:31;;;;;;;7.90;6.38;;;;;;;19.25;21.21;101467.31;5097287;28;20056;-87
2022/04/04 09:23:58;;;;;;;8.25;6.80;;;;;;;20.35;20.34;101462.84;5118430;28;20042;-86
2022/04/04 09:26:38;;;;;;;7.97;5.80;;;;;;;19.45;21.16;101455.69;5128104;28;20023;-88
2022/04/04 09:29:21;;;;;;;7.90;6.15;;;;;;;21.00;19.55;101444.03;5107570;28;20434;-85
2022/04/04 09:31:58;;;;;;;11.23;6.97;;;;;;;21.99;19.43;101442.13;5105980;28;20035;-86
2022/04/04 09:34:25;;;;;;;7.22;5.95;;;;;;;22.48;17.55;101435.13;5106302;28;20085;-85
2022/04/04 09:36:51;;;;;;;7.05;6.00;;;;;;;23.63;16.38;101439.38;5107911;28;20062;-88
2022/04/04 09:39:16;;;;;;;6.90;5.90;;;;;;;23.83;16.49;101441.06;5110669;28;20062;-85
2022/04/04 09:41:42;;;;;;;7.93;5.90;;;;;;;23.97;16.21;101439.81;5086068;28;20055;-83
2022/04/04 09:44:14;;;;;;;8.63;7.18;;;;;;;21.78;20.70;101436.94;5104561;28;20028;-79
2022/04/04 09:46:41;;;;;;;8.75;7.65;;;;;;;19.77;24.51;101449.59;5108824;28;20078;-79
2022/04/04 09:49:09;;;;;;;10.55;8.25;;;;;;;20.43;23.77;101435.31;5105997;28;20024;-84
2022/04/04 09:51:41;;;;;;;8.95;7.75;;;;;;;19.27;24.94;101434.38;5107923;28;20031;-82
2022/04/04 09:54:28;;;;;;;9.45;7.88;;;;;;;16.86;28.18;101438.88;5107796;28;20028;-81
2022/04/04 09:57:16;;;;;;;10.45;8.52;;;;;;;15.58;30.43;101435.69;5108308;28;20046;-86
2022/04/04 09:59:41;;;;;;;9.30;8.27;;;;;;;16.75;29.57;101422.13;5112901;28;20471;-82
2022/04/04 10:02:08;;;;;;;11.88;7.93;;;;;;;15.46;32.11;101418.13;5092611;28;20066;-83
2022/04/04 10:04:34;;;;;;;;;;;;;;;13.39;37.04;101417.22;5112008;28;20099;-82
2022/04/04 10:07:05;;;;;;;10.73;8.93;;;;;;;14.02;35.99;101424.06;5110152;28;19915;-85
2022/04/04 10:09:32;;;;;;;16.10;8.68;;;;;;;15.88;34.06;101417.81;5107732;28;20131;-84
2022/04/04 10:11:59;;;;;;;10.88;8.07;;;;;;;16.61;30.93;101397.47;5089888;28;20043;-83
2022/04/04 10:14:26;;;;;;;10.07;8.25;;;;;;;14.29;34.14;101410.25;5095279;28;20039;-81
2022/04/04 10:16:54;;;;;;;11.57;8.80;;;;;;;13.81;35.65;101389.38;5096562;28;20047;-84
2022/04/04 10:19:24;;;;;;;10.35;8.68;;;;;;;16.59;31.30;101415.81;5099242;28;20042;-82
2022/04/04 10:21:50;;;;;;;10.20;8.90;;;;;;;16.99;29.75;101397.47;5089186;28;20128;-83
2022/04/04 10:24:15;;;;;;;;;;;;;;;19.30;26.94;101404.84;5102520;28;20031;-82
2022/04/04 10:26:41;;;;;;;11.70;8.80;;;;;;;20.67;24.87;101403.00;5106227;28;20311;-83
2022/04/04 10:29:14;;;;;;;;;;;;;;;19.84;25.25;101407.88;5090872;28;20153;-82
2022/04/04 10:31:53;;;;;;;9.45;8.45;;;;;;;19.38;25.98;101392.94;5106512;28;19973;-82
2022/04/04 10:34:20;;;;;;;14.00;9.10;;;;;;;18.01;27.08;101377.75;5076600;28;20040;-82
2022/04/04 10:37:03;;;;;;;10.10;8.77;;;;;;;17.30;28.38;101391.03;5079331;28;20036;-82
2022/04/04 10:39:56;;;;;;;10.98;9.15;;;;;;;16.01;31.27;101390.97;5073564;28;20048;-84
2022/04/04 10:42:41;;;;;;;9.85;7.95;;;;;;;16.39;30.50;101406.47;5090968;28;20055;-81
2022/04/04 10:45:12;;;;;;;12.83;8.93;;;;;;;16.08;30.79;101385.66;5066949;28;20040;-85
2022/04/04 10:47:42;;;;;;;14.07;9.45;;;;;;;16.04;31.37;101387.03;5088514;28;20741;-84
2022/04/04 10:50:28;;;;;;;11.23;9.63;;;;;;;16.83;29.69;101392.19;5083212;28;20063;-83
2022/04/04 10:52:58;;;;;;;13.68;9.98;;;;;;;17.30;29.67;101383.75;5103292;28;20035;-83
2022/04/04 10:55:27;;;;;;;13.25;10.00;;;;;;;16.14;31.92;101389.53;5081447;28;20038;-81
2022/04/04 10:58:22;;;;;;;10.68;9.30;;;;;;;14.97;32.72;101376.59;5104722;28;20049;-81
2022/04/04 11:00:57;;;;;;;;;;;;;;;15.62;32.83;101390.97;5080876;28;20031;-82
2022/04/04 11:03:48;;;;;;;11.32;8.73;;;;;;;16.39;31.36;101387.50;5111469;28;19911;-83
2022/04/04 11:09:05;;;;;;;13.65;9.15;;;;;;;17.28;29.70;101372.22;5095090;28;20122;-85
2022/04/04 11:11:54;;;;;;;10.77;8.90;;;;;;;16.42;31.70;101378.97;5102050;28;20026;-83
2022/04/04 11:14:36;;;;;;;11.85;9.23;;;;;;;16.43;32.54;101381.47;5104941;28;20027;-82
2022/04/04 11:17:08;;;;;;;10.75;9.27;;;;;;;16.22;31.80;101378.59;5098393;27;20059;-87
2022/04/04 11:19:47;;;;;;;10.90;9.48;;;;;;;16.45;31.83;101381.31;5100973;28;20027;-85
2022/04/04 11:22:17;;;;;;;11.18;8.93;;;;;;;16.36;32.28;101385.13;5096210;28;20126;-86
2022/04/04 11:24:43;;;;;;;11.18;8.80;;;;;;;16.60;31.74;101371.34;5058345;28;20465;-86
2022/04/04 11:27:10;;;;;;;12.82;9.80;;;;;;;16.25;32.15;101375.56;5085607;28;20024;-87
2022/04/04 11:29:40;;;;;;;12.48;9.15;;;;;;;16.98;31.77;101355.06;5087177;28;20044;-84
2022/04/04 11:32:15;;;;;;;10.63;9.32;;;;;;;16.80;31.88;101349.13;5105439;28;20059;-85
2022/04/04 11:34:42;;;;;;;13.80;9.90;;;;;;;17.15;30.87;101335.84;5064627;28;20032;-85
2022/04/04 11:37:17;;;;;;;13.25;10.48;;;;;;;16.73;32.16;101356.31;5090110;28;20039;-87
2022/04/04 11:39:46;;;;;;;11.57;10.37;;;;;;;16.34;31.93;101341.03;5098214;28;20063;-86